sensor_id;sensor_type;location;lat;lon;timestamp;P1;durP1;ratioP1;P2;durP2;ratioP2
23113;SDS011;11726;50.122;8.832;2023-07-13T00:00:10;5.05;;;1.30;;
23113;SDS011;11726;50.122;8.832;2023-07-13T00:02:37;1.83;;;1.10;;
23113;SDS011;11726;50.122;8.832;2023-07-13T00:05:05;2.38;;;1.30;;
23113;SDS011;11726;50.122;8.832;2023-07-13T00:07:32;5.55;;;1.30;;
23113;SDS011;11726;50.122;8.832;2023-07-13T00:09:59;2.63;;;1.27;;
23113;SDS011;11726;50.122;8.832;2023-07-13T00:12:27;4.97;;;1.38;;
23113;SDS011;11726;50.122;8.832;2023-07-13T00:15:00;1.25;;;1.13;;
23113;SDS011;11726;50.122;8.832;2023-07-13T00:17:29;1.45;;;1.17;;
23113;SDS011;11726;50.122;8.832;2023-07-13T00:19:56;2.03;;;1.10;;
23113;SDS011;11726;50.122;8.832;2023-07-13T00:22:25;2.05;;;1.17;;
23113;SDS011;11726;50.122;8.832;2023-07-13T00:24:52;4.50;;;1.33;;
23113;SDS011;11726;50.122;8.832;2023-07-13T00:27:21;3.55;;;1.25;;
23113;SDS011;11726;50.122;8.832;2023-07-13T00:29:48;1.42;;;1.20;;
23113;SDS011;11726;50.122;8.832;2023-07-13T00:32:15;2.13;;;1.17;;
23113;SDS011;11726;50.122;8.832;2023-07-13T00:34:41;6.30;;;1.40;;
23113;SDS011;11726;50.122;8.832;2023-07-13T00:37:08;1.75;;;1.00;;
23113;SDS011;11726;50.122;8.832;2023-07-13T00:39:35;3.83;;;1.40;;
23113;SDS011;11726;50.122;8.832;2023-07-13T00:42:02;4.20;;;1.40;;
23113;SDS011;11726;50.122;8.832;2023-07-13T00:44:30;2.38;;;1.02;;
23113;SDS011;11726;50.122;8.832;2023-07-13T00:46:57;2.65;;;1.20;;
23113;SDS011;11726;50.122;8.832;2023-07-13T00:49:25;1.95;;;1.10;;
23113;SDS011;11726;50.122;8.832;2023-07-13T00:51:57;2.47;;;1.20;;
23113;SDS011;11726;50.122;8.832;2023-07-13T00:54:29;5.80;;;1.30;;
23113;SDS011;11726;50.122;8.832;2023-07-13T00:57:00;2.70;;;1.10;;
23113;SDS011;11726;50.122;8.832;2023-07-13T00:59:30;2.00;;;0.98;;
23113;SDS011;11726;50.122;8.832;2023-07-13T01:02:00;2.08;;;1.10;;
23113;SDS011;11726;50.122;8.832;2023-07-13T01:04:27;2.28;;;1.08;;
23113;SDS011;11726;50.122;8.832;2023-07-13T01:06:53;3.30;;;1.10;;
23113;SDS011;11726;50.122;8.832;2023-07-13T01:09:21;3.55;;;0.95;;
23113;SDS011;11726;50.122;8.832;2023-07-13T01:11:47;6.20;;;1.08;;
23113;SDS011;11726;50.122;8.832;2023-07-13T01:14:14;1.35;;;1.05;;
23113;SDS011;11726;50.122;8.832;2023-07-13T01:16:44;2.90;;;1.00;;
23113;SDS011;11726;50.122;8.832;2023-07-13T01:19:30;3.92;;;1.05;;
23113;SDS011;11726;50.122;8.832;2023-07-13T01:22:03;2.30;;;0.80;;
23113;SDS011;11726;50.122;8.832;2023-07-13T01:24:58;2.92;;;1.13;;
23113;SDS011;11726;50.122;8.832;2023-07-13T01:27:25;3.08;;;1.23;;
23113;SDS011;11726;50.122;8.832;2023-07-13T01:29:52;4.95;;;0.90;;
23113;SDS011;11726;50.122;8.832;2023-07-13T01:32:28;5.75;;;0.90;;
23113;SDS011;11726;50.122;8.832;2023-07-13T01:34:54;1.40;;;0.85;;
23113;SDS011;11726;50.122;8.832;2023-07-13T01:37:22;1.30;;;0.90;;
23113;SDS011;11726;50.122;8.832;2023-07-13T01:39:50;2.10;;;0.93;;
23113;SDS011;11726;50.122;8.832;2023-07-13T01:42:16;4.43;;;1.02;;
23113;SDS011;11726;50.122;8.832;2023-07-13T01:44:43;6.57;;;1.02;;
23113;SDS011;11726;50.122;8.832;2023-07-13T01:47:10;2.55;;;0.80;;
23113;SDS011;11726;50.122;8.832;2023-07-13T01:49:37;3.55;;;1.00;;
23113;SDS011;11726;50.122;8.832;2023-07-13T01:52:04;3.42;;;0.90;;
23113;SDS011;11726;50.122;8.832;2023-07-13T01:54:31;4.60;;;0.93;;
23113;SDS011;11726;50.122;8.832;2023-07-13T01:57:00;1.85;;;0.75;;
23113;SDS011;11726;50.122;8.832;2023-07-13T01:59:26;3.75;;;0.77;;
23113;SDS011;11726;50.122;8.832;2023-07-13T02:01:53;5.05;;;1.30;;
23113;SDS011;11726;50.122;8.832;2023-07-13T02:04:20;8.43;;;0.90;;
23113;SDS011;11726;50.122;8.832;2023-07-13T02:06:47;1.63;;;0.68;;
23113;SDS011;11726;50.122;8.832;2023-07-13T02:09:13;2.95;;;1.17;;
23113;SDS011;11726;50.122;8.832;2023-07-13T02:11:40;2.45;;;0.90;;
23113;SDS011;11726;50.122;8.832;2023-07-13T02:14:07;2.55;;;1.15;;
23113;SDS011;11726;50.122;8.832;2023-07-13T02:16:33;5.95;;;1.40;;
23113;SDS011;11726;50.122;8.832;2023-07-13T02:19:00;4.47;;;1.40;;
23113;SDS011;11726;50.122;8.832;2023-07-13T02:21:27;2.13;;;1.27;;
23113;SDS011;11726;50.122;8.832;2023-07-13T02:23:55;1.85;;;0.93;;
23113;SDS011;11726;50.122;8.832;2023-07-13T02:26:21;4.82;;;1.00;;
23113;SDS011;11726;50.122;8.832;2023-07-13T02:28:48;2.10;;;0.88;;
23113;SDS011;11726;50.122;8.832;2023-07-13T02:31:15;4.80;;;1.00;;
23113;SDS011;11726;50.122;8.832;2023-07-13T02:33:42;2.53;;;0.93;;
23113;SDS011;11726;50.122;8.832;2023-07-13T02:36:10;5.15;;;1.10;;
23113;SDS011;11726;50.122;8.832;2023-07-13T02:38:38;1.33;;;0.90;;
23113;SDS011;11726;50.122;8.832;2023-07-13T02:41:06;1.45;;;0.75;;
23113;SDS011;11726;50.122;8.832;2023-07-13T02:43:35;1.85;;;0.68;;
23113;SDS011;11726;50.122;8.832;2023-07-13T02:46:03;2.78;;;0.98;;
23113;SDS011;11726;50.122;8.832;2023-07-13T02:48:36;1.45;;;1.00;;
23113;SDS011;11726;50.122;8.832;2023-07-13T02:51:04;6.18;;;1.40;;
23113;SDS011;11726;50.122;8.832;2023-07-13T02:53:31;8.05;;;1.15;;
23113;SDS011;11726;50.122;8.832;2023-07-13T02:55:58;3.15;;;1.20;;
23113;SDS011;11726;50.122;8.832;2023-07-13T02:58:25;1.58;;;1.00;;
23113;SDS011;11726;50.122;8.832;2023-07-13T03:00:52;3.83;;;1.40;;
23113;SDS011;11726;50.122;8.832;2023-07-13T03:03:19;1.42;;;1.00;;
23113;SDS011;11726;50.122;8.832;2023-07-13T03:05:45;2.90;;;1.20;;
23113;SDS011;11726;50.122;8.832;2023-07-13T03:08:16;1.60;;;1.25;;
23113;SDS011;11726;50.122;8.832;2023-07-13T03:10:44;2.55;;;1.27;;
23113;SDS011;11726;50.122;8.832;2023-07-13T03:13:11;1.98;;;1.13;;
23113;SDS011;11726;50.122;8.832;2023-07-13T03:15:37;3.22;;;1.00;;
23113;SDS011;11726;50.122;8.832;2023-07-13T03:18:04;5.40;;;1.48;;
23113;SDS011;11726;50.122;8.832;2023-07-13T03:20:34;2.92;;;1.20;;
23113;SDS011;11726;50.122;8.832;2023-07-13T03:23:01;3.72;;;1.17;;
23113;SDS011;11726;50.122;8.832;2023-07-13T03:25:27;2.03;;;1.30;;
23113;SDS011;11726;50.122;8.832;2023-07-13T03:27:54;3.00;;;1.40;;
23113;SDS011;11726;50.122;8.832;2023-07-13T03:30:21;2.47;;;0.95;;
23113;SDS011;11726;50.122;8.832;2023-07-13T03:32:47;2.38;;;1.50;;
23113;SDS011;11726;50.122;8.832;2023-07-13T03:35:14;2.10;;;1.20;;
23113;SDS011;11726;50.122;8.832;2023-07-13T03:37:41;5.28;;;1.35;;
23113;SDS011;11726;50.122;8.832;2023-07-13T03:40:09;3.90;;;1.02;;
23113;SDS011;11726;50.122;8.832;2023-07-13T03:42:36;1.77;;;1.10;;
23113;SDS011;11726;50.122;8.832;2023-07-13T03:45:03;5.03;;;1.45;;
23113;SDS011;11726;50.122;8.832;2023-07-13T03:47:30;3.40;;;1.60;;
23113;SDS011;11726;50.122;8.832;2023-07-13T03:49:57;2.72;;;1.45;;
23113;SDS011;11726;50.122;8.832;2023-07-13T03:52:23;3.22;;;1.30;;
23113;SDS011;11726;50.122;8.832;2023-07-13T03:54:50;2.33;;;1.25;;
23113;SDS011;11726;50.122;8.832;2023-07-13T03:57:18;2.35;;;1.40;;
23113;SDS011;11726;50.122;8.832;2023-07-13T03:59:44;3.05;;;1.48;;
23113;SDS011;11726;50.122;8.832;2023-07-13T04:02:11;2.58;;;1.38;;
23113;SDS011;11726;50.122;8.832;2023-07-13T04:04:38;2.85;;;1.27;;
23113;SDS011;11726;50.122;8.832;2023-07-13T04:07:06;3.92;;;1.33;;
23113;SDS011;11726;50.122;8.832;2023-07-13T04:09:34;9.77;;;1.52;;
23113;SDS011;11726;50.122;8.832;2023-07-13T04:12:01;5.82;;;1.80;;
23113;SDS011;11726;50.122;8.832;2023-07-13T04:14:28;2.10;;;1.48;;
23113;SDS011;11726;50.122;8.832;2023-07-13T04:16:55;5.07;;;1.58;;
23113;SDS011;11726;50.122;8.832;2023-07-13T04:19:22;6.57;;;1.90;;
23113;SDS011;11726;50.122;8.832;2023-07-13T04:21:49;5.03;;;1.65;;
23113;SDS011;11726;50.122;8.832;2023-07-13T04:24:16;3.35;;;1.33;;
23113;SDS011;11726;50.122;8.832;2023-07-13T04:26:43;2.75;;;1.42;;
23113;SDS011;11726;50.122;8.832;2023-07-13T04:29:10;5.13;;;1.63;;
23113;SDS011;11726;50.122;8.832;2023-07-13T04:31:36;3.80;;;1.38;;
23113;SDS011;11726;50.122;8.832;2023-07-13T04:34:03;4.20;;;1.50;;
23113;SDS011;11726;50.122;8.832;2023-07-13T04:36:30;5.53;;;1.60;;
23113;SDS011;11726;50.122;8.832;2023-07-13T04:38:57;5.75;;;1.50;;
23113;SDS011;11726;50.122;8.832;2023-07-13T04:41:23;3.50;;;1.40;;
23113;SDS011;11726;50.122;8.832;2023-07-13T04:43:50;8.93;;;1.75;;
23113;SDS011;11726;50.122;8.832;2023-07-13T04:46:17;2.50;;;1.30;;
23113;SDS011;11726;50.122;8.832;2023-07-13T04:48:45;3.15;;;1.40;;
23113;SDS011;11726;50.122;8.832;2023-07-13T04:51:12;5.60;;;1.63;;
23113;SDS011;11726;50.122;8.832;2023-07-13T04:53:38;5.47;;;1.88;;
23113;SDS011;11726;50.122;8.832;2023-07-13T04:56:05;4.05;;;1.65;;
23113;SDS011;11726;50.122;8.832;2023-07-13T04:58:32;8.30;;;1.58;;
23113;SDS011;11726;50.122;8.832;2023-07-13T05:01:03;2.97;;;1.38;;
23113;SDS011;11726;50.122;8.832;2023-07-13T05:03:32;4.80;;;1.83;;
23113;SDS011;11726;50.122;8.832;2023-07-13T05:06:08;5.00;;;1.00;;
23113;SDS011;11726;50.122;8.832;2023-07-13T05:08:38;1.10;;;1.00;;
23113;SDS011;11726;50.122;8.832;2023-07-13T05:11:05;1.98;;;0.90;;
23113;SDS011;11726;50.122;8.832;2023-07-13T05:13:33;5.90;;;1.00;;
23113;SDS011;11726;50.122;8.832;2023-07-13T05:16:04;2.97;;;1.10;;
23113;SDS011;11726;50.122;8.832;2023-07-13T05:18:34;4.15;;;0.70;;
23113;SDS011;11726;50.122;8.832;2023-07-13T05:21:05;3.63;;;1.10;;
23113;SDS011;11726;50.122;8.832;2023-07-13T05:23:34;5.30;;;0.90;;
23113;SDS011;11726;50.122;8.832;2023-07-13T05:26:02;1.38;;;0.95;;
23113;SDS011;11726;50.122;8.832;2023-07-13T05:28:34;3.17;;;1.00;;
23113;SDS011;11726;50.122;8.832;2023-07-13T05:31:01;4.07;;;0.90;;
23113;SDS011;11726;50.122;8.832;2023-07-13T05:33:27;3.08;;;0.70;;
23113;SDS011;11726;50.122;8.832;2023-07-13T05:35:54;2.65;;;0.90;;
23113;SDS011;11726;50.122;8.832;2023-07-13T05:38:21;5.32;;;1.10;;
23113;SDS011;11726;50.122;8.832;2023-07-13T05:40:48;2.15;;;0.80;;
23113;SDS011;11726;50.122;8.832;2023-07-13T05:43:15;0.80;;;0.68;;
23113;SDS011;11726;50.122;8.832;2023-07-13T05:45:42;2.92;;;0.60;;
23113;SDS011;11726;50.122;8.832;2023-07-13T05:48:09;1.92;;;0.80;;
23113;SDS011;11726;50.122;8.832;2023-07-13T05:50:35;3.70;;;0.80;;
23113;SDS011;11726;50.122;8.832;2023-07-13T05:53:02;1.67;;;0.68;;
23113;SDS011;11726;50.122;8.832;2023-07-13T05:55:29;5.55;;;0.65;;
23113;SDS011;11726;50.122;8.832;2023-07-13T05:57:56;1.75;;;0.85;;
23113;SDS011;11726;50.122;8.832;2023-07-13T06:00:24;1.52;;;0.73;;
23113;SDS011;11726;50.122;8.832;2023-07-13T06:02:51;2.75;;;1.00;;
23113;SDS011;11726;50.122;8.832;2023-07-13T06:05:18;1.70;;;0.60;;
23113;SDS011;11726;50.122;8.832;2023-07-13T06:07:45;2.67;;;0.60;;
23113;SDS011;11726;50.122;8.832;2023-07-13T06:10:12;2.80;;;0.80;;
23113;SDS011;11726;50.122;8.832;2023-07-13T06:12:39;0.88;;;0.50;;
23113;SDS011;11726;50.122;8.832;2023-07-13T06:15:05;2.20;;;0.68;;
23113;SDS011;11726;50.122;8.832;2023-07-13T06:17:33;1.50;;;0.57;;
23113;SDS011;11726;50.122;8.832;2023-07-13T06:19:59;3.45;;;0.40;;
23113;SDS011;11726;50.122;8.832;2023-07-13T06:22:26;2.40;;;0.55;;
23113;SDS011;11726;50.122;8.832;2023-07-13T06:24:53;1.27;;;0.63;;
23113;SDS011;11726;50.122;8.832;2023-07-13T06:27:20;1.60;;;0.70;;
23113;SDS011;11726;50.122;8.832;2023-07-13T06:29:46;1.10;;;0.40;;
23113;SDS011;11726;50.122;8.832;2023-07-13T06:32:13;1.73;;;0.70;;
23113;SDS011;11726;50.122;8.832;2023-07-13T06:34:40;2.17;;;0.90;;
23113;SDS011;11726;50.122;8.832;2023-07-13T06:37:08;1.38;;;0.70;;
23113;SDS011;11726;50.122;8.832;2023-07-13T06:39:35;1.55;;;0.73;;
23113;SDS011;11726;50.122;8.832;2023-07-13T06:42:02;2.53;;;0.90;;
23113;SDS011;11726;50.122;8.832;2023-07-13T06:44:29;3.17;;;0.93;;
23113;SDS011;11726;50.122;8.832;2023-07-13T06:46:56;4.82;;;0.80;;
23113;SDS011;11726;50.122;8.832;2023-07-13T06:49:22;1.67;;;0.80;;
23113;SDS011;11726;50.122;8.832;2023-07-13T06:51:49;1.08;;;0.77;;
23113;SDS011;11726;50.122;8.832;2023-07-13T06:54:15;3.28;;;0.63;;
23113;SDS011;11726;50.122;8.832;2023-07-13T06:56:42;2.50;;;0.90;;
23113;SDS011;11726;50.122;8.832;2023-07-13T06:59:09;1.30;;;0.70;;
23113;SDS011;11726;50.122;8.832;2023-07-13T07:01:35;2.08;;;0.95;;
23113;SDS011;11726;50.122;8.832;2023-07-13T07:04:05;1.60;;;0.70;;
23113;SDS011;11726;50.122;8.832;2023-07-13T07:06:32;3.72;;;0.63;;
23113;SDS011;11726;50.122;8.832;2023-07-13T07:08:59;4.47;;;0.88;;
23113;SDS011;11726;50.122;8.832;2023-07-13T07:11:26;5.25;;;0.82;;
23113;SDS011;11726;50.122;8.832;2023-07-13T07:13:53;4.95;;;1.00;;
23113;SDS011;11726;50.122;8.832;2023-07-13T07:16:20;1.55;;;0.90;;
23113;SDS011;11726;50.122;8.832;2023-07-13T07:18:47;2.40;;;0.70;;
23113;SDS011;11726;50.122;8.832;2023-07-13T07:21:14;2.30;;;0.80;;
23113;SDS011;11726;50.122;8.832;2023-07-13T07:23:42;3.38;;;1.10;;
23113;SDS011;11726;50.122;8.832;2023-07-13T07:26:09;3.28;;;0.80;;
23113;SDS011;11726;50.122;8.832;2023-07-13T07:28:36;5.03;;;1.00;;
23113;SDS011;11726;50.122;8.832;2023-07-13T07:31:06;1.98;;;0.88;;
23113;SDS011;11726;50.122;8.832;2023-07-13T07:33:36;4.50;;;0.82;;
23113;SDS011;11726;50.122;8.832;2023-07-13T07:36:02;2.97;;;0.75;;
23113;SDS011;11726;50.122;8.832;2023-07-13T07:38:32;1.33;;;0.75;;
23113;SDS011;11726;50.122;8.832;2023-07-13T07:41:02;1.75;;;0.75;;
23113;SDS011;11726;50.122;8.832;2023-07-13T07:43:32;9.02;;;0.80;;
23113;SDS011;11726;50.122;8.832;2023-07-13T07:45:59;1.33;;;0.80;;
23113;SDS011;11726;50.122;8.832;2023-07-13T07:48:28;4.88;;;0.93;;
23113;SDS011;11726;50.122;8.832;2023-07-13T07:50:55;4.00;;;0.80;;
23113;SDS011;11726;50.122;8.832;2023-07-13T07:53:22;1.35;;;0.60;;
23113;SDS011;11726;50.122;8.832;2023-07-13T07:55:49;1.83;;;0.70;;
23113;SDS011;11726;50.122;8.832;2023-07-13T07:58:18;2.03;;;0.65;;
23113;SDS011;11726;50.122;8.832;2023-07-13T08:00:48;7.25;;;1.05;;
23113;SDS011;11726;50.122;8.832;2023-07-13T08:03:17;5.00;;;0.88;;
23113;SDS011;11726;50.122;8.832;2023-07-13T08:05:47;4.10;;;0.93;;
23113;SDS011;11726;50.122;8.832;2023-07-13T08:08:34;2.60;;;0.82;;
23113;SDS011;11726;50.122;8.832;2023-07-13T08:11:04;5.75;;;0.82;;
23113;SDS011;11726;50.122;8.832;2023-07-13T08:13:53;3.35;;;0.82;;
23113;SDS011;11726;50.122;8.832;2023-07-13T08:16:21;1.13;;;0.70;;
23113;SDS011;11726;50.122;8.832;2023-07-13T08:18:49;2.75;;;0.90;;
23113;SDS011;11726;50.122;8.832;2023-07-13T08:21:16;1.13;;;0.60;;
23113;SDS011;11726;50.122;8.832;2023-07-13T08:23:45;2.63;;;0.57;;
23113;SDS011;11726;50.122;8.832;2023-07-13T08:26:12;5.75;;;1.00;;
23113;SDS011;11726;50.122;8.832;2023-07-13T08:28:39;1.33;;;0.73;;
23113;SDS011;11726;50.122;8.832;2023-07-13T08:31:06;2.63;;;0.73;;
23113;SDS011;11726;50.122;8.832;2023-07-13T08:33:34;2.45;;;0.95;;
23113;SDS011;11726;50.122;8.832;2023-07-13T08:36:02;3.38;;;0.82;;
23113;SDS011;11726;50.122;8.832;2023-07-13T08:38:29;2.05;;;0.68;;
23113;SDS011;11726;50.122;8.832;2023-07-13T08:40:56;1.88;;;0.80;;
23113;SDS011;11726;50.122;8.832;2023-07-13T08:43:25;0.80;;;0.70;;
23113;SDS011;11726;50.122;8.832;2023-07-13T08:45:55;4.03;;;0.70;;
23113;SDS011;11726;50.122;8.832;2023-07-13T08:49:01;2.22;;;0.57;;
23113;SDS011;11726;50.122;8.832;2023-07-13T08:51:38;1.15;;;0.70;;
23113;SDS011;11726;50.122;8.832;2023-07-13T08:54:18;4.53;;;0.88;;
23113;SDS011;11726;50.122;8.832;2023-07-13T08:56:48;2.80;;;0.77;;
23113;SDS011;11726;50.122;8.832;2023-07-13T08:59:20;2.17;;;0.80;;
23113;SDS011;11726;50.122;8.832;2023-07-13T09:04:22;0.63;;;0.57;;
23113;SDS011;11726;50.122;8.832;2023-07-13T09:15:46;2.33;;;0.70;;
23113;SDS011;11726;50.122;8.832;2023-07-13T09:23:17;1.35;;;0.60;;
23113;SDS011;11726;50.122;8.832;2023-07-13T09:25:51;2.33;;;0.50;;
23113;SDS011;11726;50.122;8.832;2023-07-13T09:28:27;1.55;;;0.68;;
23113;SDS011;11726;50.122;8.832;2023-07-13T09:31:09;2.58;;;0.65;;
23113;SDS011;11726;50.122;8.832;2023-07-13T09:33:40;3.17;;;0.80;;
23113;SDS011;11726;50.122;8.832;2023-07-13T09:38:46;6.72;;;0.90;;
23113;SDS011;11726;50.122;8.832;2023-07-13T09:41:23;2.05;;;0.77;;
23113;SDS011;11726;50.122;8.832;2023-07-13T09:44:15;1.75;;;0.65;;
23113;SDS011;11726;50.122;8.832;2023-07-13T09:46:45;2.10;;;0.90;;
23113;SDS011;11726;50.122;8.832;2023-07-13T09:49:14;2.20;;;0.70;;
23113;SDS011;11726;50.122;8.832;2023-07-13T09:51:41;2.20;;;0.80;;
23113;SDS011;11726;50.122;8.832;2023-07-13T09:54:20;0.57;;;0.45;;
23113;SDS011;11726;50.122;8.832;2023-07-13T09:56:48;1.17;;;0.50;;
23113;SDS011;11726;50.122;8.832;2023-07-13T09:59:26;1.20;;;0.50;;
23113;SDS011;11726;50.122;8.832;2023-07-13T10:01:56;3.17;;;0.50;;
23113;SDS011;11726;50.122;8.832;2023-07-13T10:04:27;2.05;;;0.50;;
23113;SDS011;11726;50.122;8.832;2023-07-13T10:07:07;2.35;;;0.55;;
23113;SDS011;11726;50.122;8.832;2023-07-13T10:09:54;3.55;;;0.70;;
23113;SDS011;11726;50.122;8.832;2023-07-13T10:12:22;1.13;;;0.60;;
23113;SDS011;11726;50.122;8.832;2023-07-13T10:14:57;2.70;;;0.40;;
23113;SDS011;11726;50.122;8.832;2023-07-13T10:17:46;0.63;;;0.52;;
23113;SDS011;11726;50.122;8.832;2023-07-13T10:20:14;1.42;;;0.68;;
23113;SDS011;11726;50.122;8.832;2023-07-13T10:22:44;0.73;;;0.50;;
23113;SDS011;11726;50.122;8.832;2023-07-13T10:25:20;2.92;;;0.82;;
23113;SDS011;11726;50.122;8.832;2023-07-13T10:27:55;3.35;;;0.57;;
23113;SDS011;11726;50.122;8.832;2023-07-13T10:30:43;4.75;;;0.85;;
23113;SDS011;11726;50.122;8.832;2023-07-13T10:33:13;4.13;;;0.82;;
23113;SDS011;11726;50.122;8.832;2023-07-13T10:35:40;1.63;;;0.60;;
23113;SDS011;11726;50.122;8.832;2023-07-13T10:38:18;3.35;;;0.50;;
23113;SDS011;11726;50.122;8.832;2023-07-13T10:43:24;3.92;;;0.80;;
23113;SDS011;11726;50.122;8.832;2023-07-13T10:45:54;0.85;;;0.70;;
23113;SDS011;11726;50.122;8.832;2023-07-13T10:48:21;3.30;;;0.93;;
23113;SDS011;11726;50.122;8.832;2023-07-13T10:50:50;1.85;;;0.95;;
23113;SDS011;11726;50.122;8.832;2023-07-13T10:53:28;0.93;;;0.60;;
23113;SDS011;11726;50.122;8.832;2023-07-13T10:56:42;3.63;;;1.00;;
23113;SDS011;11726;50.122;8.832;2023-07-13T11:01:56;1.70;;;0.60;;
23113;SDS011;11726;50.122;8.832;2023-07-13T11:04:29;0.77;;;0.60;;
23113;SDS011;11726;50.122;8.832;2023-07-13T11:07:28;1.05;;;0.68;;
23113;SDS011;11726;50.122;8.832;2023-07-13T11:09:57;4.85;;;0.68;;
23113;SDS011;11726;50.122;8.832;2023-07-13T11:15:12;1.42;;;0.75;;
23113;SDS011;11726;50.122;8.832;2023-07-13T11:17:49;2.15;;;0.77;;
23113;SDS011;11726;50.122;8.832;2023-07-13T11:20:58;1.65;;;0.75;;
23113;SDS011;11726;50.122;8.832;2023-07-13T11:23:19;3.00;;;0.95;;
23113;SDS011;11726;50.122;8.832;2023-07-13T11:25:53;0.70;;;0.68;;
23113;SDS011;11726;50.122;8.832;2023-07-13T11:28:21;2.47;;;0.65;;
23113;SDS011;11726;50.122;8.832;2023-07-13T11:36:13;4.82;;;0.90;;
23113;SDS011;11726;50.122;8.832;2023-07-13T11:39:29;3.90;;;0.80;;
23113;SDS011;11726;50.122;8.832;2023-07-13T11:41:53;2.20;;;0.60;;
23113;SDS011;11726;50.122;8.832;2023-07-13T11:44:32;5.65;;;0.73;;
23113;SDS011;11726;50.122;8.832;2023-07-13T11:47:07;2.38;;;0.82;;
23113;SDS011;11726;50.122;8.832;2023-07-13T11:49:44;2.25;;;0.88;;
23113;SDS011;11726;50.122;8.832;2023-07-13T11:52:14;1.88;;;1.15;;
23113;SDS011;11726;50.122;8.832;2023-07-13T11:54:46;1.83;;;0.90;;
23113;SDS011;11726;50.122;8.832;2023-07-13T11:57:25;6.30;;;1.10;;
23113;SDS011;11726;50.122;8.832;2023-07-13T11:59:57;6.22;;;0.93;;
23113;SDS011;11726;50.122;8.832;2023-07-13T12:02:29;2.20;;;1.10;;
23113;SDS011;11726;50.122;8.832;2023-07-13T12:04:59;3.08;;;1.05;;
23113;SDS011;11726;50.122;8.832;2023-07-13T12:07:30;3.90;;;1.10;;
23113;SDS011;11726;50.122;8.832;2023-07-13T12:10:41;2.00;;;1.10;;
23113;SDS011;11726;50.122;8.832;2023-07-13T12:12:55;2.30;;;1.20;;
23113;SDS011;11726;50.122;8.832;2023-07-13T12:15:30;5.15;;;1.40;;
23113;SDS011;11726;50.122;8.832;2023-07-13T12:18:15;3.53;;;0.80;;
23113;SDS011;11726;50.122;8.832;2023-07-13T12:20:44;2.00;;;0.82;;
23113;SDS011;11726;50.122;8.832;2023-07-13T12:23:23;6.75;;;1.08;;
23113;SDS011;11726;50.122;8.832;2023-07-13T12:26:04;2.13;;;0.90;;
23113;SDS011;11726;50.122;8.832;2023-07-13T12:28:36;1.48;;;0.98;;
23113;SDS011;11726;50.122;8.832;2023-07-13T12:31:04;1.45;;;1.00;;
23113;SDS011;11726;50.122;8.832;2023-07-13T12:33:55;4.95;;;0.98;;
23113;SDS011;11726;50.122;8.832;2023-07-13T12:36:29;0.88;;;0.63;;
23113;SDS011;11726;50.122;8.832;2023-07-13T12:38:59;2.65;;;0.88;;
23113;SDS011;11726;50.122;8.832;2023-07-13T12:41:30;1.80;;;0.90;;
23113;SDS011;11726;50.122;8.832;2023-07-13T12:43:59;1.95;;;1.00;;
23113;SDS011;11726;50.122;8.832;2023-07-13T12:46:25;1.35;;;1.13;;
23113;SDS011;11726;50.122;8.832;2023-07-13T12:48:56;2.78;;;0.85;;
23113;SDS011;11726;50.122;8.832;2023-07-13T12:51:42;2.75;;;0.98;;
23113;SDS011;11726;50.122;8.832;2023-07-13T12:54:18;2.22;;;0.75;;
23113;SDS011;11726;50.122;8.832;2023-07-13T12:56:48;5.07;;;1.00;;
23113;SDS011;11726;50.122;8.832;2023-07-13T12:59:20;5.40;;;0.85;;
23113;SDS011;11726;50.122;8.832;2023-07-13T13:01:48;2.22;;;0.93;;
23113;SDS011;11726;50.122;8.832;2023-07-13T13:04:16;2.90;;;1.20;;
23113;SDS011;11726;50.122;8.832;2023-07-13T13:06:47;2.08;;;1.02;;
23113;SDS011;11726;50.122;8.832;2023-07-13T13:09:15;1.88;;;1.30;;
23113;SDS011;11726;50.122;8.832;2023-07-13T13:11:44;3.45;;;1.00;;
23113;SDS011;11726;50.122;8.832;2023-07-13T13:14:11;1.05;;;0.70;;
23113;SDS011;11726;50.122;8.832;2023-07-13T13:21:47;1.15;;;0.90;;
23113;SDS011;11726;50.122;8.832;2023-07-13T13:24:20;2.97;;;0.85;;
23113;SDS011;11726;50.122;8.832;2023-07-13T13:26:49;1.25;;;0.82;;
23113;SDS011;11726;50.122;8.832;2023-07-13T13:29:17;2.78;;;0.95;;
23113;SDS011;11726;50.122;8.832;2023-07-13T13:31:46;1.67;;;0.85;;
23113;SDS011;11726;50.122;8.832;2023-07-13T13:34:14;1.60;;;0.95;;
23113;SDS011;11726;50.122;8.832;2023-07-13T13:36:43;3.90;;;1.30;;
23113;SDS011;11726;50.122;8.832;2023-07-13T13:39:24;5.50;;;0.93;;
23113;SDS011;11726;50.122;8.832;2023-07-13T13:41:55;5.22;;;1.20;;
23113;SDS011;11726;50.122;8.832;2023-07-13T13:44:22;1.73;;;0.70;;
23113;SDS011;11726;50.122;8.832;2023-07-13T13:46:51;1.17;;;0.93;;
23113;SDS011;11726;50.122;8.832;2023-07-13T13:49:23;1.33;;;0.85;;
23113;SDS011;11726;50.122;8.832;2023-07-13T13:51:53;1.73;;;0.93;;
23113;SDS011;11726;50.122;8.832;2023-07-13T13:54:20;3.20;;;0.80;;
23113;SDS011;11726;50.122;8.832;2023-07-13T13:56:49;4.82;;;1.08;;
23113;SDS011;11726;50.122;8.832;2023-07-13T13:59:18;2.22;;;1.00;;
23113;SDS011;11726;50.122;8.832;2023-07-13T14:01:45;3.78;;;0.80;;
23113;SDS011;11726;50.122;8.832;2023-07-13T14:04:16;1.95;;;0.85;;
23113;SDS011;11726;50.122;8.832;2023-07-13T14:06:45;2.13;;;0.95;;
23113;SDS011;11726;50.122;8.832;2023-07-13T14:09:12;6.07;;;0.93;;
23113;SDS011;11726;50.122;8.832;2023-07-13T14:11:41;2.67;;;0.98;;
23113;SDS011;11726;50.122;8.832;2023-07-13T14:14:12;5.30;;;0.90;;
23113;SDS011;11726;50.122;8.832;2023-07-13T14:16:42;1.52;;;0.80;;
23113;SDS011;11726;50.122;8.832;2023-07-13T14:19:13;4.10;;;0.88;;
23113;SDS011;11726;50.122;8.832;2023-07-13T14:21:40;1.85;;;0.82;;
23113;SDS011;11726;50.122;8.832;2023-07-13T14:24:07;2.38;;;0.85;;
23113;SDS011;11726;50.122;8.832;2023-07-13T14:26:38;2.65;;;0.90;;
23113;SDS011;11726;50.122;8.832;2023-07-13T14:29:14;1.00;;;0.70;;
23113;SDS011;11726;50.122;8.832;2023-07-13T14:31:48;5.47;;;1.00;;
23113;SDS011;11726;50.122;8.832;2023-07-13T14:34:15;2.83;;;0.80;;
23113;SDS011;11726;50.122;8.832;2023-07-13T14:36:42;1.58;;;0.85;;
23113;SDS011;11726;50.122;8.832;2023-07-13T14:39:15;1.25;;;0.88;;
23113;SDS011;11726;50.122;8.832;2023-07-13T14:41:50;2.42;;;0.82;;
23113;SDS011;11726;50.122;8.832;2023-07-13T14:44:21;2.17;;;0.80;;
23113;SDS011;11726;50.122;8.832;2023-07-13T14:46:51;2.15;;;0.90;;
23113;SDS011;11726;50.122;8.832;2023-07-13T14:49:35;1.98;;;0.82;;
23113;SDS011;11726;50.122;8.832;2023-07-13T14:52:13;2.83;;;0.73;;
23113;SDS011;11726;50.122;8.832;2023-07-13T14:54:42;3.08;;;0.85;;
23113;SDS011;11726;50.122;8.832;2023-07-13T14:57:12;3.10;;;0.90;;
23113;SDS011;11726;50.122;8.832;2023-07-13T14:59:40;3.45;;;0.93;;
23113;SDS011;11726;50.122;8.832;2023-07-13T15:02:19;1.45;;;0.73;;
23113;SDS011;11726;50.122;8.832;2023-07-13T15:04:56;1.02;;;0.70;;
23113;SDS011;11726;50.122;8.832;2023-07-13T15:07:23;3.92;;;1.00;;
23113;SDS011;11726;50.122;8.832;2023-07-13T15:09:50;3.08;;;0.82;;
23113;SDS011;11726;50.122;8.832;2023-07-13T15:12:18;1.20;;;0.80;;
23113;SDS011;11726;50.122;8.832;2023-07-13T15:14:44;1.52;;;0.85;;
23113;SDS011;11726;50.122;8.832;2023-07-13T15:17:23;1.15;;;0.80;;
23113;SDS011;11726;50.122;8.832;2023-07-13T15:19:57;2.13;;;0.75;;
23113;SDS011;11726;50.122;8.832;2023-07-13T15:22:25;3.40;;;1.15;;
23113;SDS011;11726;50.122;8.832;2023-07-13T15:24:52;2.13;;;1.05;;
23113;SDS011;11726;50.122;8.832;2023-07-13T15:27:18;1.35;;;0.80;;
23113;SDS011;11726;50.122;8.832;2023-07-13T15:29:45;1.45;;;0.90;;
23113;SDS011;11726;50.122;8.832;2023-07-13T15:32:15;0.98;;;0.70;;
23113;SDS011;11726;50.122;8.832;2023-07-13T15:34:42;5.25;;;1.10;;
23113;SDS011;11726;50.122;8.832;2023-07-13T15:37:12;3.28;;;1.08;;
23113;SDS011;11726;50.122;8.832;2023-07-13T15:39:41;4.22;;;1.10;;
23113;SDS011;11726;50.122;8.832;2023-07-13T15:42:13;2.95;;;0.82;;